KLNK

Lincoln Airport

Airport
ICAO code
KLNK
IATA Code
LNK
Summary
ICAO Region
NAM
ICAO Territory
Location

Lincoln, Nebraska

Serving
Lincoln
Elevation
1219 ft
Coordinates
40° 50' 49" N , 96° 45' 19" W
KCC
Airport LOS
Parallel Runway Operation
Metar
KLNK 181554Z 36020G27KT 10SM BKN041 OVC095 08/02 A3018 RMK AO2 PK WND 01027/1553 SLP222 T00830022

Lincoln Airport, formerly known as Lincoln Municipal Airport, is a joint public/military (ANG) use airport located 5 nm northwest of the central business district of Lincoln, which is located in Lancaster County, Nebraska, USA.

Runways

Designator Length Width Surface Rops
17/35 1646 30 PEM Yes/Yes
14/32 2636 46 PEM Yes/Yes
18/36 3932 61 PEM Yes/Yes

Airport map

Aerial View

SKYbrary Partners:

Safety knowledge contributed by: